Canefield, Dominica

10:47 AM AST on December 28, 2014 (GMT -0400)
J73WA Weather Station | Change Station
CLOSE
Current Station
Personal Weather Station
Location: Portsmouth, Dominica
Elevation: 20 ft
Nearby Weather Stations

Elev 20 ft 15.58 °N, 61.46 °W | Updated 8 seconds ago

Partly Cloudy
Partly Cloudy
81.2 °F
Feels Like 84 °F
N
0.1
Wind Variable Wind from North
Gusts 0.0 mph

Today
High -- | Low -- °F
--% Chance of Precip.
Yesterday
High -- | Low -- °F
Precip. -- in
6:30 AM 5:43 PM
Waxing Crescent, 48% visible
Pressure 30.04 in
Visibility 6.2 miles
Clouds Few 3600 ft
Heat Index 84 °F
Dew Point 69 °F
Humidity 67%
Rainfall 0.00 in
Snow Depth Not available.
UV 8 out of 12
Pollen Not available.
Air Quality Not available.
Flu Activity Not available.
METAR TFFR 281430Z 06006KT 320V120 9999 FEW036 27/17 Q1017 NOSIG

More Conditions Fewer Conditions

Pressure 30.04 in
Visibility 6.2 miles
Clouds Few 3600 ft
Heat Index 84 °F
Dew Point 69 °F
Humidity 67%
Rainfall 0.00 in
Snow Depth Not available.
UV 8 out of 12
Pollen Not available.
Air Quality Not available.
Flu Activity Not available.
METAR TFFR 281430Z 06006KT 320V120 9999 FEW036 27/17 Q1017 NOSIG

More Conditions Fewer Conditions

10-Day Weather Forecast

Almanac

Astronomy

Dec. 28, 2014 Rise Set
Actual Time
Civil Twilight
Nautical Twilight
Astronomical Twilight
Moon
Length of Visible Light
Length of Day
Tomorrow will be .
, % of the Moon is Illuminated

Today's Extremes

Country Highs Country Lows

Community

WunderPhotos

Upload Photos

1,781,274 photos uploaded!

WunderBlogs® & News

Nearby

Air Quality

  Air Quality AQ Index Pollutant
Not available.

Snow Depth

Station Depth Elevation

Earthquake Activity

City Distance Mag. Time & Date
Minimum magnitude displayed is 2.5.

Coastal Water Temperatures

Place Temperature

Nearby Weather Stations